sensor_id;sensor_type;location;lat;lon;timestamp;P1;durP1;ratioP1;P2;durP2;ratioP2
25123;SDS011;13104;51.030;4.686;2022-07-06T00:01:38;6.57;;;3.28;;
25123;SDS011;13104;51.030;4.686;2022-07-06T00:04:04;4.90;;;3.00;;
25123;SDS011;13104;51.030;4.686;2022-07-06T00:06:30;7.70;;;3.80;;
25123;SDS011;13104;51.030;4.686;2022-07-06T00:08:56;11.38;;;3.53;;
25123;SDS011;13104;51.030;4.686;2022-07-06T00:11:23;6.78;;;3.53;;
25123;SDS011;13104;51.030;4.686;2022-07-06T00:13:49;6.00;;;3.20;;
25123;SDS011;13104;51.030;4.686;2022-07-06T00:16:15;7.45;;;3.75;;
25123;SDS011;13104;51.030;4.686;2022-07-06T00:18:41;5.72;;;3.08;;
25123;SDS011;13104;51.030;4.686;2022-07-06T00:21:07;6.55;;;3.15;;
25123;SDS011;13104;51.030;4.686;2022-07-06T00:23:34;9.63;;;4.03;;
25123;SDS011;13104;51.030;4.686;2022-07-06T00:26:00;5.10;;;3.53;;
25123;SDS011;13104;51.030;4.686;2022-07-06T00:28:26;7.97;;;3.47;;
25123;SDS011;13104;51.030;4.686;2022-07-06T00:30:52;7.10;;;3.38;;
25123;SDS011;13104;51.030;4.686;2022-07-06T00:33:19;8.18;;;3.70;;
25123;SDS011;13104;51.030;4.686;2022-07-06T00:35:45;8.80;;;3.75;;
25123;SDS011;13104;51.030;4.686;2022-07-06T00:38:11;7.13;;;3.67;;
25123;SDS011;13104;51.030;4.686;2022-07-06T00:40:37;5.72;;;3.80;;
25123;SDS011;13104;51.030;4.686;2022-07-06T00:43:03;10.95;;;3.72;;
25123;SDS011;13104;51.030;4.686;2022-07-06T00:45:29;5.18;;;3.38;;
25123;SDS011;13104;51.030;4.686;2022-07-06T00:47:55;8.98;;;3.72;;
25123;SDS011;13104;51.030;4.686;2022-07-06T00:50:22;4.85;;;3.42;;
25123;SDS011;13104;51.030;4.686;2022-07-06T00:52:50;10.90;;;3.10;;
25123;SDS011;13104;51.030;4.686;2022-07-06T00:55:18;11.13;;;4.32;;
25123;SDS011;13104;51.030;4.686;2022-07-06T00:57:44;9.82;;;4.30;;
25123;SDS011;13104;51.030;4.686;2022-07-06T01:00:11;7.68;;;4.38;;
25123;SDS011;13104;51.030;4.686;2022-07-06T01:02:38;8.90;;;4.20;;
25123;SDS011;13104;51.030;4.686;2022-07-06T01:05:04;7.47;;;4.38;;
25123;SDS011;13104;51.030;4.686;2022-07-06T01:07:31;7.65;;;4.80;;
25123;SDS011;13104;51.030;4.686;2022-07-06T01:09:57;8.43;;;4.45;;
25123;SDS011;13104;51.030;4.686;2022-07-06T01:12:23;6.20;;;3.60;;
25123;SDS011;13104;51.030;4.686;2022-07-06T01:14:49;9.05;;;4.20;;
25123;SDS011;13104;51.030;4.686;2022-07-06T01:17:16;7.05;;;4.07;;
25123;SDS011;13104;51.030;4.686;2022-07-06T01:19:42;6.82;;;3.75;;
25123;SDS011;13104;51.030;4.686;2022-07-06T01:22:09;11.32;;;4.18;;
25123;SDS011;13104;51.030;4.686;2022-07-06T01:24:35;4.97;;;3.80;;
25123;SDS011;13104;51.030;4.686;2022-07-06T01:27:05;7.00;;;4.05;;
25123;SDS011;13104;51.030;4.686;2022-07-06T01:29:32;6.50;;;3.80;;
25123;SDS011;13104;51.030;4.686;2022-07-06T01:31:58;6.10;;;3.97;;
25123;SDS011;13104;51.030;4.686;2022-07-06T01:34:24;6.05;;;3.70;;
25123;SDS011;13104;51.030;4.686;2022-07-06T01:36:51;4.72;;;3.78;;
25123;SDS011;13104;51.030;4.686;2022-07-06T01:39:17;8.40;;;3.92;;
25123;SDS011;13104;51.030;4.686;2022-07-06T01:41:43;4.70;;;3.90;;
25123;SDS011;13104;51.030;4.686;2022-07-06T01:44:09;8.10;;;3.80;;
25123;SDS011;13104;51.030;4.686;2022-07-06T01:46:35;8.27;;;3.65;;
25123;SDS011;13104;51.030;4.686;2022-07-06T01:49:01;8.93;;;4.18;;
25123;SDS011;13104;51.030;4.686;2022-07-06T01:51:27;7.28;;;4.40;;
25123;SDS011;13104;51.030;4.686;2022-07-06T01:53:53;8.25;;;4.00;;
25123;SDS011;13104;51.030;4.686;2022-07-06T01:56:20;7.85;;;4.45;;
25123;SDS011;13104;51.030;4.686;2022-07-06T01:58:46;4.80;;;4.18;;
25123;SDS011;13104;51.030;4.686;2022-07-06T02:01:17;7.10;;;4.30;;
25123;SDS011;13104;51.030;4.686;2022-07-06T02:03:43;8.57;;;3.78;;
25123;SDS011;13104;51.030;4.686;2022-07-06T02:06:10;11.73;;;4.45;;
25123;SDS011;13104;51.030;4.686;2022-07-06T02:08:39;7.00;;;4.38;;
25123;SDS011;13104;51.030;4.686;2022-07-06T02:11:06;9.63;;;4.53;;
25123;SDS011;13104;51.030;4.686;2022-07-06T02:13:33;5.60;;;4.47;;
25123;SDS011;13104;51.030;4.686;2022-07-06T02:15:59;10.48;;;4.65;;
25123;SDS011;13104;51.030;4.686;2022-07-06T02:18:25;6.35;;;4.50;;
25123;SDS011;13104;51.030;4.686;2022-07-06T02:20:51;7.18;;;4.45;;
25123;SDS011;13104;51.030;4.686;2022-07-06T02:23:17;4.80;;;4.05;;
25123;SDS011;13104;51.030;4.686;2022-07-06T02:25:43;7.57;;;4.00;;
25123;SDS011;13104;51.030;4.686;2022-07-06T02:28:09;12.52;;;5.20;;
25123;SDS011;13104;51.030;4.686;2022-07-06T02:30:35;7.38;;;4.53;;
25123;SDS011;13104;51.030;4.686;2022-07-06T02:33:02;8.13;;;4.57;;
25123;SDS011;13104;51.030;4.686;2022-07-06T02:35:28;10.07;;;4.40;;
25123;SDS011;13104;51.030;4.686;2022-07-06T02:37:54;13.23;;;5.43;;
25123;SDS011;13104;51.030;4.686;2022-07-06T02:40:20;7.22;;;5.43;;
25123;SDS011;13104;51.030;4.686;2022-07-06T02:42:46;7.53;;;5.30;;
25123;SDS011;13104;51.030;4.686;2022-07-06T02:45:12;10.57;;;5.28;;
25123;SDS011;13104;51.030;4.686;2022-07-06T02:47:38;9.80;;;5.18;;
25123;SDS011;13104;51.030;4.686;2022-07-06T02:50:05;10.52;;;5.20;;
25123;SDS011;13104;51.030;4.686;2022-07-06T02:52:31;8.55;;;5.28;;
25123;SDS011;13104;51.030;4.686;2022-07-06T02:54:57;8.68;;;5.22;;
25123;SDS011;13104;51.030;4.686;2022-07-06T02:57:23;8.38;;;5.50;;
25123;SDS011;13104;51.030;4.686;2022-07-06T02:59:49;8.52;;;5.28;;
25123;SDS011;13104;51.030;4.686;2022-07-06T03:02:16;9.90;;;5.43;;
25123;SDS011;13104;51.030;4.686;2022-07-06T03:04:42;8.73;;;5.18;;
25123;SDS011;13104;51.030;4.686;2022-07-06T03:07:08;6.90;;;5.13;;
25123;SDS011;13104;51.030;4.686;2022-07-06T03:09:34;8.57;;;5.35;;
25123;SDS011;13104;51.030;4.686;2022-07-06T03:12:00;8.07;;;5.88;;
25123;SDS011;13104;51.030;4.686;2022-07-06T03:14:26;8.85;;;4.78;;
25123;SDS011;13104;51.030;4.686;2022-07-06T03:16:52;9.60;;;5.43;;
25123;SDS011;13104;51.030;4.686;2022-07-06T03:19:19;8.85;;;4.90;;
25123;SDS011;13104;51.030;4.686;2022-07-06T03:21:45;8.60;;;5.10;;
25123;SDS011;13104;51.030;4.686;2022-07-06T03:24:11;6.45;;;4.60;;
25123;SDS011;13104;51.030;4.686;2022-07-06T03:26:37;6.97;;;5.15;;
25123;SDS011;13104;51.030;4.686;2022-07-06T03:29:03;10.68;;;4.93;;
25123;SDS011;13104;51.030;4.686;2022-07-06T03:31:29;7.95;;;4.85;;
25123;SDS011;13104;51.030;4.686;2022-07-06T03:33:55;7.10;;;4.72;;
25123;SDS011;13104;51.030;4.686;2022-07-06T03:36:22;10.25;;;5.28;;
25123;SDS011;13104;51.030;4.686;2022-07-06T03:38:48;8.98;;;4.90;;
25123;SDS011;13104;51.030;4.686;2022-07-06T03:41:14;10.07;;;5.00;;
25123;SDS011;13104;51.030;4.686;2022-07-06T03:43:40;6.93;;;5.35;;
25123;SDS011;13104;51.030;4.686;2022-07-06T03:46:06;8.23;;;5.45;;
25123;SDS011;13104;51.030;4.686;2022-07-06T03:48:32;9.65;;;5.32;;
25123;SDS011;13104;51.030;4.686;2022-07-06T03:50:58;8.70;;;5.82;;
25123;SDS011;13104;51.030;4.686;2022-07-06T03:53:24;9.13;;;5.30;;
25123;SDS011;13104;51.030;4.686;2022-07-06T03:55:51;7.95;;;5.57;;
25123;SDS011;13104;51.030;4.686;2022-07-06T03:58:35;10.15;;;5.57;;
25123;SDS011;13104;51.030;4.686;2022-07-06T04:01:01;8.57;;;5.50;;
25123;SDS011;13104;51.030;4.686;2022-07-06T04:03:27;8.20;;;5.15;;
25123;SDS011;13104;51.030;4.686;2022-07-06T04:05:54;10.95;;;5.63;;
25123;SDS011;13104;51.030;4.686;2022-07-06T04:08:20;6.35;;;5.15;;
25123;SDS011;13104;51.030;4.686;2022-07-06T04:10:46;13.35;;;5.68;;
25123;SDS011;13104;51.030;4.686;2022-07-06T04:13:12;8.75;;;5.03;;
25123;SDS011;13104;51.030;4.686;2022-07-06T04:15:38;7.15;;;5.18;;
25123;SDS011;13104;51.030;4.686;2022-07-06T04:18:04;11.15;;;5.43;;
25123;SDS011;13104;51.030;4.686;2022-07-06T04:20:30;8.05;;;5.32;;
25123;SDS011;13104;51.030;4.686;2022-07-06T04:22:57;11.43;;;5.80;;
25123;SDS011;13104;51.030;4.686;2022-07-06T04:25:23;7.90;;;5.10;;
25123;SDS011;13104;51.030;4.686;2022-07-06T04:27:49;10.27;;;5.45;;
25123;SDS011;13104;51.030;4.686;2022-07-06T04:30:16;10.75;;;5.70;;
25123;SDS011;13104;51.030;4.686;2022-07-06T04:32:42;7.35;;;5.47;;
25123;SDS011;13104;51.030;4.686;2022-07-06T04:35:08;7.70;;;5.28;;
25123;SDS011;13104;51.030;4.686;2022-07-06T04:37:34;8.73;;;6.53;;
25123;SDS011;13104;51.030;4.686;2022-07-06T04:40:00;7.45;;;5.63;;
25123;SDS011;13104;51.030;4.686;2022-07-06T04:42:26;9.90;;;5.68;;
25123;SDS011;13104;51.030;4.686;2022-07-06T04:44:53;11.13;;;6.15;;
25123;SDS011;13104;51.030;4.686;2022-07-06T04:47:19;8.48;;;6.25;;
25123;SDS011;13104;51.030;4.686;2022-07-06T04:49:45;11.40;;;6.13;;
25123;SDS011;13104;51.030;4.686;2022-07-06T04:52:11;9.35;;;6.07;;
25123;SDS011;13104;51.030;4.686;2022-07-06T04:54:37;9.75;;;5.80;;
25123;SDS011;13104;51.030;4.686;2022-07-06T04:57:03;9.75;;;6.18;;
25123;SDS011;13104;51.030;4.686;2022-07-06T04:59:29;10.88;;;6.60;;
25123;SDS011;13104;51.030;4.686;2022-07-06T05:01:55;9.30;;;6.40;;
25123;SDS011;13104;51.030;4.686;2022-07-06T05:04:21;11.18;;;5.97;;
25123;SDS011;13104;51.030;4.686;2022-07-06T05:06:49;10.75;;;6.32;;
25123;SDS011;13104;51.030;4.686;2022-07-06T05:09:15;9.75;;;6.60;;
25123;SDS011;13104;51.030;4.686;2022-07-06T05:11:41;10.05;;;6.70;;
25123;SDS011;13104;51.030;4.686;2022-07-06T05:14:08;8.80;;;5.80;;
25123;SDS011;13104;51.030;4.686;2022-07-06T05:16:34;10.98;;;6.53;;
25123;SDS011;13104;51.030;4.686;2022-07-06T05:19:00;11.82;;;6.32;;
25123;SDS011;13104;51.030;4.686;2022-07-06T05:21:26;14.85;;;6.95;;
25123;SDS011;13104;51.030;4.686;2022-07-06T05:23:52;12.43;;;6.95;;
25123;SDS011;13104;51.030;4.686;2022-07-06T05:26:18;10.38;;;7.07;;
25123;SDS011;13104;51.030;4.686;2022-07-06T05:28:44;10.95;;;6.68;;
25123;SDS011;13104;51.030;4.686;2022-07-06T05:31:10;12.90;;;7.63;;
25123;SDS011;13104;51.030;4.686;2022-07-06T05:33:36;11.55;;;7.95;;
25123;SDS011;13104;51.030;4.686;2022-07-06T05:36:02;15.05;;;7.80;;
25123;SDS011;13104;51.030;4.686;2022-07-06T05:38:28;12.68;;;7.72;;
25123;SDS011;13104;51.030;4.686;2022-07-06T05:40:55;12.27;;;8.50;;
25123;SDS011;13104;51.030;4.686;2022-07-06T05:43:21;10.95;;;8.10;;
25123;SDS011;13104;51.030;4.686;2022-07-06T05:45:47;12.75;;;8.70;;
25123;SDS011;13104;51.030;4.686;2022-07-06T05:48:13;14.32;;;8.75;;
25123;SDS011;13104;51.030;4.686;2022-07-06T05:50:58;17.90;;;8.90;;
25123;SDS011;13104;51.030;4.686;2022-07-06T05:53:24;15.35;;;9.45;;
25123;SDS011;13104;51.030;4.686;2022-07-06T05:55:50;16.83;;;9.82;;
25123;SDS011;13104;51.030;4.686;2022-07-06T05:58:16;16.58;;;10.07;;
25123;SDS011;13104;51.030;4.686;2022-07-06T06:00:42;15.02;;;10.20;;
25123;SDS011;13104;51.030;4.686;2022-07-06T06:03:08;15.20;;;9.35;;
25123;SDS011;13104;51.030;4.686;2022-07-06T06:05:34;14.60;;;9.32;;
25123;SDS011;13104;51.030;4.686;2022-07-06T06:08:00;15.20;;;9.40;;
25123;SDS011;13104;51.030;4.686;2022-07-06T06:10:26;14.88;;;7.97;;
25123;SDS011;13104;51.030;4.686;2022-07-06T06:12:53;16.00;;;9.45;;
25123;SDS011;13104;51.030;4.686;2022-07-06T06:15:19;16.50;;;9.32;;
25123;SDS011;13104;51.030;4.686;2022-07-06T06:17:45;17.13;;;9.80;;
25123;SDS011;13104;51.030;4.686;2022-07-06T06:20:12;16.70;;;10.02;;
25123;SDS011;13104;51.030;4.686;2022-07-06T06:25:21;14.27;;;8.85;;
25123;SDS011;13104;51.030;4.686;2022-07-06T06:27:47;19.33;;;9.50;;
25123;SDS011;13104;51.030;4.686;2022-07-06T06:30:13;20.70;;;10.77;;
25123;SDS011;13104;51.030;4.686;2022-07-06T06:32:39;14.90;;;9.63;;
25123;SDS011;13104;51.030;4.686;2022-07-06T06:35:06;16.33;;;9.30;;
25123;SDS011;13104;51.030;4.686;2022-07-06T06:37:32;17.35;;;9.13;;
25123;SDS011;13104;51.030;4.686;2022-07-06T06:39:59;15.52;;;8.75;;
25123;SDS011;13104;51.030;4.686;2022-07-06T06:42:25;16.70;;;7.95;;
25123;SDS011;13104;51.030;4.686;2022-07-06T06:44:51;12.95;;;7.40;;
25123;SDS011;13104;51.030;4.686;2022-07-06T06:47:17;12.80;;;7.57;;
25123;SDS011;13104;51.030;4.686;2022-07-06T06:49:44;14.98;;;6.43;;
25123;SDS011;13104;51.030;4.686;2022-07-06T06:52:11;13.13;;;6.80;;
25123;SDS011;13104;51.030;4.686;2022-07-06T06:54:37;9.18;;;6.22;;
25123;SDS011;13104;51.030;4.686;2022-07-06T06:57:03;15.77;;;6.90;;
25123;SDS011;13104;51.030;4.686;2022-07-06T06:59:29;17.02;;;5.28;;
25123;SDS011;13104;51.030;4.686;2022-07-06T07:01:55;9.43;;;5.40;;
25123;SDS011;13104;51.030;4.686;2022-07-06T07:04:21;10.40;;;4.50;;
25123;SDS011;13104;51.030;4.686;2022-07-06T07:06:47;11.13;;;3.97;;
25123;SDS011;13104;51.030;4.686;2022-07-06T07:09:13;11.40;;;4.22;;
25123;SDS011;13104;51.030;4.686;2022-07-06T07:11:39;10.18;;;4.50;;
25123;SDS011;13104;51.030;4.686;2022-07-06T07:14:05;9.85;;;3.50;;
25123;SDS011;13104;51.030;4.686;2022-07-06T07:16:31;7.70;;;3.20;;
25123;SDS011;13104;51.030;4.686;2022-07-06T07:18:58;5.90;;;2.50;;
25123;SDS011;13104;51.030;4.686;2022-07-06T07:21:24;7.03;;;2.85;;
25123;SDS011;13104;51.030;4.686;2022-07-06T07:23:50;5.00;;;2.90;;
25123;SDS011;13104;51.030;4.686;2022-07-06T07:26:16;7.45;;;2.50;;
25123;SDS011;13104;51.030;4.686;2022-07-06T07:28:43;12.57;;;2.50;;
25123;SDS011;13104;51.030;4.686;2022-07-06T07:31:09;8.38;;;2.25;;
25123;SDS011;13104;51.030;4.686;2022-07-06T07:33:35;7.15;;;2.10;;
25123;SDS011;13104;51.030;4.686;2022-07-06T07:36:01;6.72;;;2.05;;
25123;SDS011;13104;51.030;4.686;2022-07-06T07:38:27;7.45;;;2.10;;
25123;SDS011;13104;51.030;4.686;2022-07-06T07:40:54;8.93;;;2.00;;
25123;SDS011;13104;51.030;4.686;2022-07-06T07:43:20;4.63;;;1.90;;
25123;SDS011;13104;51.030;4.686;2022-07-06T07:45:46;7.00;;;2.10;;
25123;SDS011;13104;51.030;4.686;2022-07-06T07:48:13;5.30;;;1.70;;
25123;SDS011;13104;51.030;4.686;2022-07-06T07:50:40;6.88;;;1.90;;
25123;SDS011;13104;51.030;4.686;2022-07-06T07:53:06;5.20;;;1.70;;
25123;SDS011;13104;51.030;4.686;2022-07-06T07:55:32;6.80;;;2.10;;
25123;SDS011;13104;51.030;4.686;2022-07-06T07:57:58;3.67;;;1.75;;
25123;SDS011;13104;51.030;4.686;2022-07-06T08:00:24;4.53;;;1.60;;
25123;SDS011;13104;51.030;4.686;2022-07-06T08:02:51;3.75;;;1.48;;
25123;SDS011;13104;51.030;4.686;2022-07-06T08:05:19;6.45;;;1.73;;
25123;SDS011;13104;51.030;4.686;2022-07-06T08:07:45;4.63;;;1.38;;
25123;SDS011;13104;51.030;4.686;2022-07-06T08:10:11;6.82;;;1.40;;
25123;SDS011;13104;51.030;4.686;2022-07-06T08:12:37;6.15;;;1.65;;
25123;SDS011;13104;51.030;4.686;2022-07-06T08:15:04;7.78;;;1.67;;
25123;SDS011;13104;51.030;4.686;2022-07-06T08:17:30;6.05;;;1.65;;
25123;SDS011;13104;51.030;4.686;2022-07-06T08:19:56;10.63;;;1.40;;
25123;SDS011;13104;51.030;4.686;2022-07-06T08:22:22;3.60;;;1.55;;
25123;SDS011;13104;51.030;4.686;2022-07-06T08:24:48;4.65;;;1.45;;
25123;SDS011;13104;51.030;4.686;2022-07-06T08:27:15;6.22;;;1.48;;
25123;SDS011;13104;51.030;4.686;2022-07-06T08:29:41;6.28;;;1.67;;
25123;SDS011;13104;51.030;4.686;2022-07-06T08:32:07;6.03;;;1.58;;
25123;SDS011;13104;51.030;4.686;2022-07-06T08:34:33;8.75;;;1.95;;
25123;SDS011;13104;51.030;4.686;2022-07-06T08:37:00;4.90;;;1.70;;
25123;SDS011;13104;51.030;4.686;2022-07-06T08:39:26;3.53;;;1.48;;
25123;SDS011;13104;51.030;4.686;2022-07-06T08:41:52;7.30;;;1.92;;
25123;SDS011;13104;51.030;4.686;2022-07-06T08:44:20;6.18;;;1.58;;
25123;SDS011;13104;51.030;4.686;2022-07-06T08:46:46;4.30;;;1.80;;
25123;SDS011;13104;51.030;4.686;2022-07-06T08:49:16;6.05;;;1.63;;
25123;SDS011;13104;51.030;4.686;2022-07-06T08:51:42;7.20;;;1.65;;
25123;SDS011;13104;51.030;4.686;2022-07-06T08:54:08;6.60;;;1.83;;
25123;SDS011;13104;51.030;4.686;2022-07-06T08:56:36;3.80;;;1.65;;
25123;SDS011;13104;51.030;4.686;2022-07-06T08:59:03;5.72;;;1.65;;
25123;SDS011;13104;51.030;4.686;2022-07-06T09:01:32;11.05;;;2.08;;
25123;SDS011;13104;51.030;4.686;2022-07-06T09:03:59;7.43;;;2.15;;
25123;SDS011;13104;51.030;4.686;2022-07-06T09:06:26;9.23;;;1.65;;
25123;SDS011;13104;51.030;4.686;2022-07-06T09:08:53;6.03;;;1.48;;
25123;SDS011;13104;51.030;4.686;2022-07-06T09:11:20;4.97;;;1.50;;
25123;SDS011;13104;51.030;4.686;2022-07-06T09:13:47;6.45;;;1.58;;
25123;SDS011;13104;51.030;4.686;2022-07-06T09:16:14;8.02;;;1.60;;
25123;SDS011;13104;51.030;4.686;2022-07-06T09:18:43;6.95;;;1.67;;
25123;SDS011;13104;51.030;4.686;2022-07-06T09:21:09;3.08;;;1.23;;
25123;SDS011;13104;51.030;4.686;2022-07-06T09:23:36;4.75;;;1.73;;
25123;SDS011;13104;51.030;4.686;2022-07-06T09:26:03;6.93;;;1.88;;
25123;SDS011;13104;51.030;4.686;2022-07-06T09:28:42;6.32;;;1.33;;
25123;SDS011;13104;51.030;4.686;2022-07-06T09:31:08;3.92;;;1.42;;
25123;SDS011;13104;51.030;4.686;2022-07-06T09:33:34;4.68;;;1.50;;
25123;SDS011;13104;51.030;4.686;2022-07-06T09:36:00;6.97;;;1.33;;
25123;SDS011;13104;51.030;4.686;2022-07-06T09:38:27;6.40;;;1.48;;
25123;SDS011;13104;51.030;4.686;2022-07-06T09:40:54;8.00;;;1.50;;
25123;SDS011;13104;51.030;4.686;2022-07-06T09:43:20;5.50;;;1.38;;
25123;SDS011;13104;51.030;4.686;2022-07-06T09:45:54;6.90;;;1.70;;
25123;SDS011;13104;51.030;4.686;2022-07-06T09:48:21;5.15;;;1.50;;
25123;SDS011;13104;51.030;4.686;2022-07-06T09:50:49;5.18;;;1.30;;
25123;SDS011;13104;51.030;4.686;2022-07-06T09:53:19;4.53;;;1.38;;
25123;SDS011;13104;51.030;4.686;2022-07-06T09:55:45;3.85;;;1.30;;
25123;SDS011;13104;51.030;4.686;2022-07-06T09:58:12;4.25;;;1.10;;
25123;SDS011;13104;51.030;4.686;2022-07-06T10:00:38;5.43;;;1.30;;
25123;SDS011;13104;51.030;4.686;2022-07-06T10:03:06;6.13;;;1.25;;
25123;SDS011;13104;51.030;4.686;2022-07-06T10:05:36;4.22;;;1.33;;
25123;SDS011;13104;51.030;4.686;2022-07-06T10:08:02;6.88;;;1.65;;
25123;SDS011;13104;51.030;4.686;2022-07-06T10:10:31;4.90;;;1.40;;
25123;SDS011;13104;51.030;4.686;2022-07-06T10:12:58;3.83;;;1.40;;
25123;SDS011;13104;51.030;4.686;2022-07-06T10:15:25;6.10;;;1.48;;
25123;SDS011;13104;51.030;4.686;2022-07-06T10:17:52;5.28;;;1.70;;
25123;SDS011;13104;51.030;4.686;2022-07-06T10:20:19;5.20;;;1.45;;
25123;SDS011;13104;51.030;4.686;2022-07-06T10:22:46;4.70;;;1.60;;
25123;SDS011;13104;51.030;4.686;2022-07-06T10:25:17;2.70;;;1.35;;
25123;SDS011;13104;51.030;4.686;2022-07-06T10:27:43;3.67;;;1.35;;
25123;SDS011;13104;51.030;4.686;2022-07-06T10:30:10;6.75;;;1.60;;
25123;SDS011;13104;51.030;4.686;2022-07-06T10:32:37;3.10;;;1.38;;
25123;SDS011;13104;51.030;4.686;2022-07-06T10:35:04;9.05;;;2.00;;
25123;SDS011;13104;51.030;4.686;2022-07-06T10:37:31;5.65;;;1.77;;
25123;SDS011;13104;51.030;4.686;2022-07-06T10:39:59;4.60;;;1.55;;
25123;SDS011;13104;51.030;4.686;2022-07-06T10:42:47;6.70;;;1.60;;
25123;SDS011;13104;51.030;4.686;2022-07-06T10:50:39;9.98;;;1.88;;
25123;SDS011;13104;51.030;4.686;2022-07-06T10:53:13;5.60;;;1.95;;
25123;SDS011;13104;51.030;4.686;2022-07-06T10:55:40;8.30;;;1.50;;
25123;SDS011;13104;51.030;4.686;2022-07-06T10:58:06;7.00;;;1.70;;
25123;SDS011;13104;51.030;4.686;2022-07-06T11:03:33;3.67;;;1.48;;
25123;SDS011;13104;51.030;4.686;2022-07-06T11:06:00;7.88;;;1.92;;
25123;SDS011;13104;51.030;4.686;2022-07-06T11:11:15;4.68;;;1.70;;
25123;SDS011;13104;51.030;4.686;2022-07-06T11:13:43;10.35;;;2.25;;
25123;SDS011;13104;51.030;4.686;2022-07-06T11:16:09;6.15;;;1.75;;
25123;SDS011;13104;51.030;4.686;2022-07-06T11:18:39;4.88;;;1.90;;
25123;SDS011;13104;51.030;4.686;2022-07-06T11:21:18;8.45;;;1.90;;
25123;SDS011;13104;51.030;4.686;2022-07-06T11:23:46;6.18;;;2.00;;
25123;SDS011;13104;51.030;4.686;2022-07-06T11:26:13;7.90;;;1.95;;
25123;SDS011;13104;51.030;4.686;2022-07-06T11:28:39;9.60;;;1.98;;
25123;SDS011;13104;51.030;4.686;2022-07-06T11:31:05;5.70;;;1.90;;
25123;SDS011;13104;51.030;4.686;2022-07-06T11:33:31;5.85;;;1.77;;
25123;SDS011;13104;51.030;4.686;2022-07-06T11:36:14;8.75;;;2.05;;
25123;SDS011;13104;51.030;4.686;2022-07-06T11:38:41;7.80;;;1.98;;
25123;SDS011;13104;51.030;4.686;2022-07-06T11:41:07;6.10;;;1.90;;
25123;SDS011;13104;51.030;4.686;2022-07-06T11:43:33;8.05;;;1.90;;
25123;SDS011;13104;51.030;4.686;2022-07-06T11:45:59;8.07;;;2.05;;
25123;SDS011;13104;51.030;4.686;2022-07-06T11:48:25;7.07;;;1.50;;
25123;SDS011;13104;51.030;4.686;2022-07-06T11:50:58;6.13;;;1.90;;
25123;SDS011;13104;51.030;4.686;2022-07-06T11:53:25;4.68;;;1.67;;
25123;SDS011;13104;51.030;4.686;2022-07-06T11:55:51;4.88;;;1.88;;
25123;SDS011;13104;51.030;4.686;2022-07-06T11:58:21;10.40;;;1.80;;
25123;SDS011;13104;51.030;4.686;2022-07-06T12:01:04;5.38;;;1.70;;
25123;SDS011;13104;51.030;4.686;2022-07-06T12:03:30;6.28;;;2.20;;
25123;SDS011;13104;51.030;4.686;2022-07-06T12:05:58;7.88;;;1.70;;
25123;SDS011;13104;51.030;4.686;2022-07-06T12:08:24;7.65;;;1.85;;
25123;SDS011;13104;51.030;4.686;2022-07-06T12:10:50;5.22;;;1.55;;
25123;SDS011;13104;51.030;4.686;2022-07-06T12:13:17;8.38;;;1.67;;
25123;SDS011;13104;51.030;4.686;2022-07-06T12:15:43;9.13;;;1.95;;
25123;SDS011;13104;51.030;4.686;2022-07-06T12:18:10;5.07;;;1.65;;
25123;SDS011;13104;51.030;4.686;2022-07-06T12:20:36;4.78;;;1.45;;
25123;SDS011;13104;51.030;4.686;2022-07-06T12:23:03;7.57;;;1.67;;
25123;SDS011;13104;51.030;4.686;2022-07-06T12:25:33;7.53;;;1.60;;
25123;SDS011;13104;51.030;4.686;2022-07-06T12:27:59;5.85;;;1.80;;
25123;SDS011;13104;51.030;4.686;2022-07-06T12:30:25;5.38;;;1.50;;
25123;SDS011;13104;51.030;4.686;2022-07-06T12:33:11;7.32;;;1.65;;
25123;SDS011;13104;51.030;4.686;2022-07-06T12:35:39;4.75;;;1.50;;
25123;SDS011;13104;51.030;4.686;2022-07-06T12:38:05;8.73;;;1.83;;
25123;SDS011;13104;51.030;4.686;2022-07-06T12:40:31;8.15;;;2.00;;
25123;SDS011;13104;51.030;4.686;2022-07-06T12:42:58;5.53;;;1.60;;
25123;SDS011;13104;51.030;4.686;2022-07-06T12:45:27;8.00;;;1.65;;
25123;SDS011;13104;51.030;4.686;2022-07-06T12:48:00;6.22;;;1.50;;
25123;SDS011;13104;51.030;4.686;2022-07-06T12:50:33;4.38;;;1.98;;
25123;SDS011;13104;51.030;4.686;2022-07-06T12:53:00;7.63;;;1.70;;
25123;SDS011;13104;51.030;4.686;2022-07-06T12:55:28;7.45;;;2.10;;
25123;SDS011;13104;51.030;4.686;2022-07-06T12:57:54;9.38;;;1.90;;
25123;SDS011;13104;51.030;4.686;2022-07-06T13:00:20;4.65;;;1.65;;
25123;SDS011;13104;51.030;4.686;2022-07-06T13:02:51;6.82;;;1.80;;
25123;SDS011;13104;51.030;4.686;2022-07-06T13:05:27;6.93;;;2.05;;
25123;SDS011;13104;51.030;4.686;2022-07-06T13:07:53;6.70;;;1.70;;
25123;SDS011;13104;51.030;4.686;2022-07-06T13:10:20;5.43;;;1.80;;
25123;SDS011;13104;51.030;4.686;2022-07-06T13:12:47;4.78;;;1.60;;
25123;SDS011;13104;51.030;4.686;2022-07-06T13:15:13;8.48;;;1.90;;
25123;SDS011;13104;51.030;4.686;2022-07-06T13:17:39;5.82;;;2.20;;
25123;SDS011;13104;51.030;4.686;2022-07-06T13:20:06;7.05;;;2.10;;
25123;SDS011;13104;51.030;4.686;2022-07-06T13:22:33;4.18;;;1.63;;
25123;SDS011;13104;51.030;4.686;2022-07-06T13:24:59;5.72;;;1.55;;
25123;SDS011;13104;51.030;4.686;2022-07-06T13:27:25;6.78;;;2.40;;
25123;SDS011;13104;51.030;4.686;2022-07-06T13:29:51;6.72;;;2.20;;
25123;SDS011;13104;51.030;4.686;2022-07-06T13:32:18;7.55;;;2.10;;
25123;SDS011;13104;51.030;4.686;2022-07-06T13:34:44;7.63;;;2.30;;
25123;SDS011;13104;51.030;4.686;2022-07-06T13:37:10;7.88;;;2.65;;
25123;SDS011;13104;51.030;4.686;2022-07-06T13:39:36;6.90;;;2.30;;
25123;SDS011;13104;51.030;4.686;2022-07-06T13:42:02;5.63;;;2.10;;
25123;SDS011;13104;51.030;4.686;2022-07-06T13:44:28;7.50;;;2.15;;
25123;SDS011;13104;51.030;4.686;2022-07-06T13:46:54;7.60;;;1.92;;
25123;SDS011;13104;51.030;4.686;2022-07-06T13:49:20;7.70;;;2.85;;
25123;SDS011;13104;51.030;4.686;2022-07-06T13:51:47;9.20;;;2.92;;
25123;SDS011;13104;51.030;4.686;2022-07-06T13:54:13;9.18;;;2.65;;
25123;SDS011;13104;51.030;4.686;2022-07-06T13:56:39;9.50;;;2.30;;
25123;SDS011;13104;51.030;4.686;2022-07-06T13:59:05;10.25;;;3.92;;
25123;SDS011;13104;51.030;4.686;2022-07-06T14:01:32;7.53;;;2.88;;
25123;SDS011;13104;51.030;4.686;2022-07-06T14:03:58;8.23;;;3.20;;
25123;SDS011;13104;51.030;4.686;2022-07-06T14:06:24;8.40;;;3.03;;
25123;SDS011;13104;51.030;4.686;2022-07-06T14:08:50;5.90;;;3.08;;
25123;SDS011;13104;51.030;4.686;2022-07-06T14:11:16;10.45;;;2.60;;
25123;SDS011;13104;51.030;4.686;2022-07-06T14:13:42;14.07;;;3.28;;
25123;SDS011;13104;51.030;4.686;2022-07-06T14:16:09;12.02;;;3.10;;
25123;SDS011;13104;51.030;4.686;2022-07-06T14:18:35;8.27;;;3.20;;
25123;SDS011;13104;51.030;4.686;2022-07-06T14:21:01;7.22;;;2.92;;
25123;SDS011;13104;51.030;4.686;2022-07-06T14:23:28;7.72;;;2.15;;
25123;SDS011;13104;51.030;4.686;2022-07-06T14:25:55;6.95;;;2.50;;
25123;SDS011;13104;51.030;4.686;2022-07-06T14:28:21;3.70;;;2.28;;
25123;SDS011;13104;51.030;4.686;2022-07-06T14:30:48;6.97;;;2.70;;
25123;SDS011;13104;51.030;4.686;2022-07-06T14:33:14;7.72;;;2.90;;
25123;SDS011;13104;51.030;4.686;2022-07-06T14:35:48;7.95;;;2.65;;
25123;SDS011;13104;51.030;4.686;2022-07-06T14:38:15;7.53;;;2.42;;
25123;SDS011;13104;51.030;4.686;2022-07-06T14:40:41;13.15;;;2.97;;
25123;SDS011;13104;51.030;4.686;2022-07-06T14:43:07;5.00;;;2.40;;
25123;SDS011;13104;51.030;4.686;2022-07-06T14:45:33;4.35;;;2.05;;
25123;SDS011;13104;51.030;4.686;2022-07-06T14:47:59;7.90;;;2.30;;
25123;SDS011;13104;51.030;4.686;2022-07-06T14:50:26;6.20;;;2.20;;
25123;SDS011;13104;51.030;4.686;2022-07-06T14:52:52;5.50;;;2.10;;
25123;SDS011;13104;51.030;4.686;2022-07-06T14:55:18;5.82;;;1.98;;
25123;SDS011;13104;51.030;4.686;2022-07-06T14:57:45;4.55;;;1.90;;